sensor_id;sensor_type;location;lat;lon;timestamp;temperature;humidity
24049;DHT22;12250;50.956;4.746;2023-07-16T00:00:00;16.70;99.90
24049;DHT22;12250;50.956;4.746;2023-07-16T00:02:27;16.70;99.90
24049;DHT22;12250;50.956;4.746;2023-07-16T00:04:52;16.60;99.90
24049;DHT22;12250;50.956;4.746;2023-07-16T00:07:18;16.60;99.90
24049;DHT22;12250;50.956;4.746;2023-07-16T00:09:44;16.60;99.90
24049;DHT22;12250;50.956;4.746;2023-07-16T00:12:09;16.50;99.90
24049;DHT22;12250;50.956;4.746;2023-07-16T00:14:35;16.50;99.90
24049;DHT22;12250;50.956;4.746;2023-07-16T00:17:01;16.40;99.90
24049;DHT22;12250;50.956;4.746;2023-07-16T00:19:26;16.40;99.90
24049;DHT22;12250;50.956;4.746;2023-07-16T00:21:52;16.30;99.90
24049;DHT22;12250;50.956;4.746;2023-07-16T00:24:18;16.30;99.90
24049;DHT22;12250;50.956;4.746;2023-07-16T00:26:43;16.40;99.90
24049;DHT22;12250;50.956;4.746;2023-07-16T00:29:09;16.40;99.90
24049;DHT22;12250;50.956;4.746;2023-07-16T00:31:34;16.50;99.90
24049;DHT22;12250;50.956;4.746;2023-07-16T00:34:00;16.50;99.90
24049;DHT22;12250;50.956;4.746;2023-07-16T00:36:26;16.60;99.90
24049;DHT22;12250;50.956;4.746;2023-07-16T00:38:51;16.60;99.90
24049;DHT22;12250;50.956;4.746;2023-07-16T00:41:17;16.60;99.90
24049;DHT22;12250;50.956;4.746;2023-07-16T00:43:43;16.50;99.90
24049;DHT22;12250;50.956;4.746;2023-07-16T00:46:08;16.50;99.90
24049;DHT22;12250;50.956;4.746;2023-07-16T00:48:35;16.40;99.90
24049;DHT22;12250;50.956;4.746;2023-07-16T00:51:02;16.40;99.90
24049;DHT22;12250;50.956;4.746;2023-07-16T00:53:28;16.40;99.90
24049;DHT22;12250;50.956;4.746;2023-07-16T00:55:54;16.40;99.90
24049;DHT22;12250;50.956;4.746;2023-07-16T00:58:19;16.40;99.90
24049;DHT22;12250;50.956;4.746;2023-07-16T01:00:45;16.40;99.90
24049;DHT22;12250;50.956;4.746;2023-07-16T01:03:13;16.30;99.90
24049;DHT22;12250;50.956;4.746;2023-07-16T01:08:14;16.10;99.90
24049;DHT22;12250;50.956;4.746;2023-07-16T01:10:43;16.10;99.90
24049;DHT22;12250;50.956;4.746;2023-07-16T01:13:09;16.10;99.90
24049;DHT22;12250;50.956;4.746;2023-07-16T01:15:35;16.10;99.90
24049;DHT22;12250;50.956;4.746;2023-07-16T01:18:02;16.00;99.90
24049;DHT22;12250;50.956;4.746;2023-07-16T01:20:28;16.00;99.90
24049;DHT22;12250;50.956;4.746;2023-07-16T01:26:02;15.90;99.90
24049;DHT22;12250;50.956;4.746;2023-07-16T01:31:16;15.80;99.90
24049;DHT22;12250;50.956;4.746;2023-07-16T01:33:42;15.80;99.90
24049;DHT22;12250;50.956;4.746;2023-07-16T01:36:08;15.70;99.90
24049;DHT22;12250;50.956;4.746;2023-07-16T01:38:35;15.70;99.90
24049;DHT22;12250;50.956;4.746;2023-07-16T01:41:01;15.60;99.90
24049;DHT22;12250;50.956;4.746;2023-07-16T01:43:27;15.60;99.90
24049;DHT22;12250;50.956;4.746;2023-07-16T01:45:53;15.50;99.90
24049;DHT22;12250;50.956;4.746;2023-07-16T01:48:31;15.50;99.90
24049;DHT22;12250;50.956;4.746;2023-07-16T01:50:57;15.50;99.90
24049;DHT22;12250;50.956;4.746;2023-07-16T01:53:23;15.40;99.90
24049;DHT22;12250;50.956;4.746;2023-07-16T01:55:48;15.30;99.90
24049;DHT22;12250;50.956;4.746;2023-07-16T01:58:14;15.30;99.90
24049;DHT22;12250;50.956;4.746;2023-07-16T02:00:40;15.20;99.90
24049;DHT22;12250;50.956;4.746;2023-07-16T02:03:06;15.10;99.90
24049;DHT22;12250;50.956;4.746;2023-07-16T02:05:31;15.10;99.90
24049;DHT22;12250;50.956;4.746;2023-07-16T02:07:57;15.00;99.90
24049;DHT22;12250;50.956;4.746;2023-07-16T02:10:23;14.90;99.90
24049;DHT22;12250;50.956;4.746;2023-07-16T02:12:48;14.80;99.90
24049;DHT22;12250;50.956;4.746;2023-07-16T02:15:14;14.80;99.90
24049;DHT22;12250;50.956;4.746;2023-07-16T02:17:40;14.70;99.90
24049;DHT22;12250;50.956;4.746;2023-07-16T02:20:06;14.70;99.90
24049;DHT22;12250;50.956;4.746;2023-07-16T02:22:31;14.70;99.90
24049;DHT22;12250;50.956;4.746;2023-07-16T02:24:57;14.70;99.90
24049;DHT22;12250;50.956;4.746;2023-07-16T02:27:23;14.60;99.90
24049;DHT22;12250;50.956;4.746;2023-07-16T02:29:49;14.60;99.90
24049;DHT22;12250;50.956;4.746;2023-07-16T02:32:14;14.60;99.90
24049;DHT22;12250;50.956;4.746;2023-07-16T02:34:40;14.60;99.90
24049;DHT22;12250;50.956;4.746;2023-07-16T02:37:05;14.60;99.90
24049;DHT22;12250;50.956;4.746;2023-07-16T02:39:32;14.60;99.90
24049;DHT22;12250;50.956;4.746;2023-07-16T02:41:58;14.60;99.90
24049;DHT22;12250;50.956;4.746;2023-07-16T02:44:24;14.60;99.90
24049;DHT22;12250;50.956;4.746;2023-07-16T02:46:49;14.60;99.90
24049;DHT22;12250;50.956;4.746;2023-07-16T02:49:15;14.60;99.90
24049;DHT22;12250;50.956;4.746;2023-07-16T02:51:41;14.60;99.90
24049;DHT22;12250;50.956;4.746;2023-07-16T02:54:07;14.50;99.90
24049;DHT22;12250;50.956;4.746;2023-07-16T02:56:33;14.50;99.90
24049;DHT22;12250;50.956;4.746;2023-07-16T02:58:58;14.40;99.90
24049;DHT22;12250;50.956;4.746;2023-07-16T03:01:24;14.40;99.90
24049;DHT22;12250;50.956;4.746;2023-07-16T03:03:50;14.40;99.90
24049;DHT22;12250;50.956;4.746;2023-07-16T03:06:15;14.50;99.90
24049;DHT22;12250;50.956;4.746;2023-07-16T03:08:41;14.50;99.90
24049;DHT22;12250;50.956;4.746;2023-07-16T03:11:07;14.40;99.90
24049;DHT22;12250;50.956;4.746;2023-07-16T03:13:32;14.30;99.90
24049;DHT22;12250;50.956;4.746;2023-07-16T03:15:58;14.30;99.90
24049;DHT22;12250;50.956;4.746;2023-07-16T03:18:28;14.20;99.90
24049;DHT22;12250;50.956;4.746;2023-07-16T03:20:55;14.20;99.90
24049;DHT22;12250;50.956;4.746;2023-07-16T03:23:21;14.20;99.90
24049;DHT22;12250;50.956;4.746;2023-07-16T03:25:46;14.10;99.90
24049;DHT22;12250;50.956;4.746;2023-07-16T03:28:13;14.20;99.90
24049;DHT22;12250;50.956;4.746;2023-07-16T03:30:39;14.10;99.90
24049;DHT22;12250;50.956;4.746;2023-07-16T03:33:04;14.10;99.90
24049;DHT22;12250;50.956;4.746;2023-07-16T03:35:30;14.00;99.90
24049;DHT22;12250;50.956;4.746;2023-07-16T03:37:56;14.00;99.90
24049;DHT22;12250;50.956;4.746;2023-07-16T03:40:26;14.00;99.90
24049;DHT22;12250;50.956;4.746;2023-07-16T03:42:52;14.00;99.90
24049;DHT22;12250;50.956;4.746;2023-07-16T03:45:18;14.10;99.90
24049;DHT22;12250;50.956;4.746;2023-07-16T03:47:44;14.10;99.90
24049;DHT22;12250;50.956;4.746;2023-07-16T03:50:10;14.10;99.90
24049;DHT22;12250;50.956;4.746;2023-07-16T03:52:36;14.10;99.90
24049;DHT22;12250;50.956;4.746;2023-07-16T03:55:01;14.10;99.90
24049;DHT22;12250;50.956;4.746;2023-07-16T03:57:30;14.10;99.90
24049;DHT22;12250;50.956;4.746;2023-07-16T03:59:56;14.10;99.90
24049;DHT22;12250;50.956;4.746;2023-07-16T04:02:23;14.10;99.90
24049;DHT22;12250;50.956;4.746;2023-07-16T04:04:48;14.10;99.90
24049;DHT22;12250;50.956;4.746;2023-07-16T04:07:14;14.10;99.90
24049;DHT22;12250;50.956;4.746;2023-07-16T04:09:40;14.10;99.90
24049;DHT22;12250;50.956;4.746;2023-07-16T04:12:08;14.20;99.90
24049;DHT22;12250;50.956;4.746;2023-07-16T04:14:34;14.20;99.90
24049;DHT22;12250;50.956;4.746;2023-07-16T04:16:59;14.30;99.90
24049;DHT22;12250;50.956;4.746;2023-07-16T04:19:25;14.30;99.90
24049;DHT22;12250;50.956;4.746;2023-07-16T04:21:51;14.30;99.90
24049;DHT22;12250;50.956;4.746;2023-07-16T04:24:16;14.40;99.90
24049;DHT22;12250;50.956;4.746;2023-07-16T04:26:42;14.40;99.90
24049;DHT22;12250;50.956;4.746;2023-07-16T04:29:07;14.40;99.90
24049;DHT22;12250;50.956;4.746;2023-07-16T04:31:33;14.40;99.90
24049;DHT22;12250;50.956;4.746;2023-07-16T04:33:59;14.50;99.90
24049;DHT22;12250;50.956;4.746;2023-07-16T04:36:25;14.50;99.90
24049;DHT22;12250;50.956;4.746;2023-07-16T04:38:50;14.60;99.90
24049;DHT22;12250;50.956;4.746;2023-07-16T04:41:16;14.60;99.90
24049;DHT22;12250;50.956;4.746;2023-07-16T04:43:42;14.70;99.90
24049;DHT22;12250;50.956;4.746;2023-07-16T04:46:08;14.70;99.90
24049;DHT22;12250;50.956;4.746;2023-07-16T04:48:33;14.80;99.90
24049;DHT22;12250;50.956;4.746;2023-07-16T04:50:59;14.90;99.90
24049;DHT22;12250;50.956;4.746;2023-07-16T04:53:25;14.90;99.90
24049;DHT22;12250;50.956;4.746;2023-07-16T04:55:50;14.90;99.90
24049;DHT22;12250;50.956;4.746;2023-07-16T04:58:16;14.90;99.90
24049;DHT22;12250;50.956;4.746;2023-07-16T05:00:42;14.90;99.90
24049;DHT22;12250;50.956;4.746;2023-07-16T05:03:08;15.00;99.90
24049;DHT22;12250;50.956;4.746;2023-07-16T05:05:34;15.10;99.90
24049;DHT22;12250;50.956;4.746;2023-07-16T05:08:00;15.20;99.90
24049;DHT22;12250;50.956;4.746;2023-07-16T05:10:27;15.20;99.90
24049;DHT22;12250;50.956;4.746;2023-07-16T05:12:53;15.30;99.90
24049;DHT22;12250;50.956;4.746;2023-07-16T05:15:19;15.30;99.90
24049;DHT22;12250;50.956;4.746;2023-07-16T05:17:45;15.40;99.90
24049;DHT22;12250;50.956;4.746;2023-07-16T05:20:10;15.40;99.90
24049;DHT22;12250;50.956;4.746;2023-07-16T05:22:36;15.50;99.90
24049;DHT22;12250;50.956;4.746;2023-07-16T05:25:02;15.60;99.90
24049;DHT22;12250;50.956;4.746;2023-07-16T05:27:28;15.60;99.90
24049;DHT22;12250;50.956;4.746;2023-07-16T05:29:54;15.60;99.90
24049;DHT22;12250;50.956;4.746;2023-07-16T05:32:21;15.70;99.90
24049;DHT22;12250;50.956;4.746;2023-07-16T05:34:47;15.70;99.90
24049;DHT22;12250;50.956;4.746;2023-07-16T05:37:13;15.90;99.90
24049;DHT22;12250;50.956;4.746;2023-07-16T05:39:39;15.90;99.90
24049;DHT22;12250;50.956;4.746;2023-07-16T05:42:05;15.90;99.90
24049;DHT22;12250;50.956;4.746;2023-07-16T05:44:30;16.00;99.90
24049;DHT22;12250;50.956;4.746;2023-07-16T05:46:56;16.10;99.90
24049;DHT22;12250;50.956;4.746;2023-07-16T05:49:24;16.10;99.90
24049;DHT22;12250;50.956;4.746;2023-07-16T05:51:49;16.20;99.90
24049;DHT22;12250;50.956;4.746;2023-07-16T05:54:15;16.30;99.90
24049;DHT22;12250;50.956;4.746;2023-07-16T05:56:41;16.40;99.90
24049;DHT22;12250;50.956;4.746;2023-07-16T05:59:07;16.40;99.90
24049;DHT22;12250;50.956;4.746;2023-07-16T06:01:32;16.50;99.90
24049;DHT22;12250;50.956;4.746;2023-07-16T06:03:58;16.50;99.90
24049;DHT22;12250;50.956;4.746;2023-07-16T06:06:23;16.60;99.90
24049;DHT22;12250;50.956;4.746;2023-07-16T06:08:49;16.70;99.90
24049;DHT22;12250;50.956;4.746;2023-07-16T06:11:15;16.70;99.90
24049;DHT22;12250;50.956;4.746;2023-07-16T06:13:41;16.80;99.90
24049;DHT22;12250;50.956;4.746;2023-07-16T06:16:06;16.80;99.90
24049;DHT22;12250;50.956;4.746;2023-07-16T06:18:32;16.90;99.90
24049;DHT22;12250;50.956;4.746;2023-07-16T06:20:57;17.00;99.90
24049;DHT22;12250;50.956;4.746;2023-07-16T06:23:23;17.10;99.90
24049;DHT22;12250;50.956;4.746;2023-07-16T06:25:54;17.10;99.90
24049;DHT22;12250;50.956;4.746;2023-07-16T06:28:20;17.10;99.90
24049;DHT22;12250;50.956;4.746;2023-07-16T06:30:45;17.20;99.90
24049;DHT22;12250;50.956;4.746;2023-07-16T06:33:11;17.30;99.90
24049;DHT22;12250;50.956;4.746;2023-07-16T06:35:37;17.40;99.90
24049;DHT22;12250;50.956;4.746;2023-07-16T06:38:03;17.40;99.90
24049;DHT22;12250;50.956;4.746;2023-07-16T06:40:29;17.50;99.90
24049;DHT22;12250;50.956;4.746;2023-07-16T06:42:56;17.50;99.90
24049;DHT22;12250;50.956;4.746;2023-07-16T06:45:22;17.50;99.90
24049;DHT22;12250;50.956;4.746;2023-07-16T06:47:48;17.50;99.90
24049;DHT22;12250;50.956;4.746;2023-07-16T06:50:14;17.60;99.90
24049;DHT22;12250;50.956;4.746;2023-07-16T06:52:39;17.70;99.90
24049;DHT22;12250;50.956;4.746;2023-07-16T06:55:05;17.90;99.90
24049;DHT22;12250;50.956;4.746;2023-07-16T06:57:31;18.00;99.90
24049;DHT22;12250;50.956;4.746;2023-07-16T06:59:57;18.10;99.90
24049;DHT22;12250;50.956;4.746;2023-07-16T07:02:22;18.10;99.90
24049;DHT22;12250;50.956;4.746;2023-07-16T07:04:48;18.10;99.90
24049;DHT22;12250;50.956;4.746;2023-07-16T07:07:13;18.20;99.90
24049;DHT22;12250;50.956;4.746;2023-07-16T07:09:39;18.30;99.90
24049;DHT22;12250;50.956;4.746;2023-07-16T07:12:05;18.40;99.90
24049;DHT22;12250;50.956;4.746;2023-07-16T07:14:33;18.40;99.90
24049;DHT22;12250;50.956;4.746;2023-07-16T07:16:58;18.50;99.90
24049;DHT22;12250;50.956;4.746;2023-07-16T07:19:24;18.60;99.90
24049;DHT22;12250;50.956;4.746;2023-07-16T07:21:49;18.50;99.90
24049;DHT22;12250;50.956;4.746;2023-07-16T07:24:15;18.50;99.90
24049;DHT22;12250;50.956;4.746;2023-07-16T07:26:41;18.60;99.90
24049;DHT22;12250;50.956;4.746;2023-07-16T07:29:06;18.70;99.90
24049;DHT22;12250;50.956;4.746;2023-07-16T07:31:32;18.90;99.90
24049;DHT22;12250;50.956;4.746;2023-07-16T07:33:57;19.20;99.90
24049;DHT22;12250;50.956;4.746;2023-07-16T07:36:24;19.50;99.90
24049;DHT22;12250;50.956;4.746;2023-07-16T07:38:49;19.60;99.90
24049;DHT22;12250;50.956;4.746;2023-07-16T07:41:15;19.70;99.90
24049;DHT22;12250;50.956;4.746;2023-07-16T07:43:41;19.80;99.90
24049;DHT22;12250;50.956;4.746;2023-07-16T07:46:06;19.80;99.90
24049;DHT22;12250;50.956;4.746;2023-07-16T07:48:32;20.00;99.90
24049;DHT22;12250;50.956;4.746;2023-07-16T07:50:58;20.20;99.90
24049;DHT22;12250;50.956;4.746;2023-07-16T07:53:23;20.40;99.90
24049;DHT22;12250;50.956;4.746;2023-07-16T07:55:49;20.50;99.90
24049;DHT22;12250;50.956;4.746;2023-07-16T07:58:14;20.70;99.90
24049;DHT22;12250;50.956;4.746;2023-07-16T08:00:40;21.00;99.90
24049;DHT22;12250;50.956;4.746;2023-07-16T08:03:06;21.30;99.90
24049;DHT22;12250;50.956;4.746;2023-07-16T08:05:31;21.50;99.90
24049;DHT22;12250;50.956;4.746;2023-07-16T08:07:58;21.70;99.90
24049;DHT22;12250;50.956;4.746;2023-07-16T08:10:24;22.30;99.90
24049;DHT22;12250;50.956;4.746;2023-07-16T08:12:50;23.60;99.90
24049;DHT22;12250;50.956;4.746;2023-07-16T08:15:15;24.80;97.50
24049;DHT22;12250;50.956;4.746;2023-07-16T08:17:42;25.00;96.50
24049;DHT22;12250;50.956;4.746;2023-07-16T08:20:08;25.10;96.20
24049;DHT22;12250;50.956;4.746;2023-07-16T08:22:34;25.50;94.80
24049;DHT22;12250;50.956;4.746;2023-07-16T08:25:00;27.20;91.80
24049;DHT22;12250;50.956;4.746;2023-07-16T08:27:26;28.60;85.90
24049;DHT22;12250;50.956;4.746;2023-07-16T08:29:51;29.40;76.70
24049;DHT22;12250;50.956;4.746;2023-07-16T08:32:18;30.20;73.70
24049;DHT22;12250;50.956;4.746;2023-07-16T08:34:43;30.30;69.90
24049;DHT22;12250;50.956;4.746;2023-07-16T08:37:09;31.00;67.00
24049;DHT22;12250;50.956;4.746;2023-07-16T08:39:34;31.10;66.30
24049;DHT22;12250;50.956;4.746;2023-07-16T08:42:01;31.80;61.00
24049;DHT22;12250;50.956;4.746;2023-07-16T08:44:28;32.10;63.30
24049;DHT22;12250;50.956;4.746;2023-07-16T08:46:54;33.70;58.50
24049;DHT22;12250;50.956;4.746;2023-07-16T08:49:21;36.70;56.00
24049;DHT22;12250;50.956;4.746;2023-07-16T08:51:48;37.20;49.40
24049;DHT22;12250;50.956;4.746;2023-07-16T08:54:14;36.60;48.00
24049;DHT22;12250;50.956;4.746;2023-07-16T08:56:44;35.90;47.70
24049;DHT22;12250;50.956;4.746;2023-07-16T08:59:11;34.60;49.30
24049;DHT22;12250;50.956;4.746;2023-07-16T09:01:37;35.10;49.80
24049;DHT22;12250;50.956;4.746;2023-07-16T09:04:03;35.10;48.20
24049;DHT22;12250;50.956;4.746;2023-07-16T09:06:30;33.30;50.40
24049;DHT22;12250;50.956;4.746;2023-07-16T09:08:56;33.00;51.30
24049;DHT22;12250;50.956;4.746;2023-07-16T09:11:21;32.20;51.70
24049;DHT22;12250;50.956;4.746;2023-07-16T09:13:50;30.90;52.90
24049;DHT22;12250;50.956;4.746;2023-07-16T09:16:19;30.00;57.00
24049;DHT22;12250;50.956;4.746;2023-07-16T09:18:46;29.10;58.40
24049;DHT22;12250;50.956;4.746;2023-07-16T09:21:12;28.50;59.90
24049;DHT22;12250;50.956;4.746;2023-07-16T09:23:38;27.90;62.30
24049;DHT22;12250;50.956;4.746;2023-07-16T09:26:04;28.10;62.60
24049;DHT22;12250;50.956;4.746;2023-07-16T09:28:31;28.40;62.60
24049;DHT22;12250;50.956;4.746;2023-07-16T09:31:03;28.30;63.60
24049;DHT22;12250;50.956;4.746;2023-07-16T09:33:31;27.90;62.40
24049;DHT22;12250;50.956;4.746;2023-07-16T09:35:57;27.70;64.30
24049;DHT22;12250;50.956;4.746;2023-07-16T09:38:23;27.90;65.20
24049;DHT22;12250;50.956;4.746;2023-07-16T09:40:52;29.00;59.80
24049;DHT22;12250;50.956;4.746;2023-07-16T09:43:19;29.20;61.60
24049;DHT22;12250;50.956;4.746;2023-07-16T09:45:46;29.40;60.20
24049;DHT22;12250;50.956;4.746;2023-07-16T09:48:14;29.70;59.10
24049;DHT22;12250;50.956;4.746;2023-07-16T09:50:45;29.80;58.10
24049;DHT22;12250;50.956;4.746;2023-07-16T09:53:16;29.60;59.00
24049;DHT22;12250;50.956;4.746;2023-07-16T09:55:44;29.30;60.70
24049;DHT22;12250;50.956;4.746;2023-07-16T09:58:10;28.40;61.00
24049;DHT22;12250;50.956;4.746;2023-07-16T10:00:37;27.70;63.00
24049;DHT22;12250;50.956;4.746;2023-07-16T10:03:06;27.30;65.10
24049;DHT22;12250;50.956;4.746;2023-07-16T10:05:36;27.60;65.90
24049;DHT22;12250;50.956;4.746;2023-07-16T10:08:05;27.90;66.00
24049;DHT22;12250;50.956;4.746;2023-07-16T10:10:41;27.90;66.30
24049;DHT22;12250;50.956;4.746;2023-07-16T10:13:10;27.70;64.10
24049;DHT22;12250;50.956;4.746;2023-07-16T10:15:36;27.30;64.40
24049;DHT22;12250;50.956;4.746;2023-07-16T10:18:02;27.20;67.90
24049;DHT22;12250;50.956;4.746;2023-07-16T10:20:34;27.60;65.20
24049;DHT22;12250;50.956;4.746;2023-07-16T10:23:14;27.50;65.00
24049;DHT22;12250;50.956;4.746;2023-07-16T10:25:41;27.30;64.70
24049;DHT22;12250;50.956;4.746;2023-07-16T10:28:06;27.20;66.50
24049;DHT22;12250;50.956;4.746;2023-07-16T10:30:33;27.60;67.20
24049;DHT22;12250;50.956;4.746;2023-07-16T10:33:03;27.80;65.50
24049;DHT22;12250;50.956;4.746;2023-07-16T10:35:41;27.90;66.00
24049;DHT22;12250;50.956;4.746;2023-07-16T10:38:07;27.80;66.50
24049;DHT22;12250;50.956;4.746;2023-07-16T10:40:32;27.50;65.10
24049;DHT22;12250;50.956;4.746;2023-07-16T10:42:59;27.30;65.10
24049;DHT22;12250;50.956;4.746;2023-07-16T10:45:25;27.20;66.10
24049;DHT22;12250;50.956;4.746;2023-07-16T10:47:53;26.70;68.10
24049;DHT22;12250;50.956;4.746;2023-07-16T10:50:20;26.10;66.90
24049;DHT22;12250;50.956;4.746;2023-07-16T10:52:51;25.40;70.30
24049;DHT22;12250;50.956;4.746;2023-07-16T10:55:18;24.90;73.00
24049;DHT22;12250;50.956;4.746;2023-07-16T10:57:46;24.60;73.10
24049;DHT22;12250;50.956;4.746;2023-07-16T11:00:12;24.40;74.20
24049;DHT22;12250;50.956;4.746;2023-07-16T11:02:39;24.30;74.50
24049;DHT22;12250;50.956;4.746;2023-07-16T11:05:13;24.30;74.60
24049;DHT22;12250;50.956;4.746;2023-07-16T11:07:43;24.40;74.70
24049;DHT22;12250;50.956;4.746;2023-07-16T11:10:10;24.50;75.20
24049;DHT22;12250;50.956;4.746;2023-07-16T11:12:36;24.70;73.70
24049;DHT22;12250;50.956;4.746;2023-07-16T11:15:01;25.00;74.60
24049;DHT22;12250;50.956;4.746;2023-07-16T11:17:27;24.90;74.10
24049;DHT22;12250;50.956;4.746;2023-07-16T11:19:54;25.00;73.20
24049;DHT22;12250;50.956;4.746;2023-07-16T11:22:25;25.60;73.70
24049;DHT22;12250;50.956;4.746;2023-07-16T11:24:52;26.60;72.00
24049;DHT22;12250;50.956;4.746;2023-07-16T11:27:25;27.90;67.30
24049;DHT22;12250;50.956;4.746;2023-07-16T11:29:56;29.00;64.70
24049;DHT22;12250;50.956;4.746;2023-07-16T11:32:30;29.20;60.80
24049;DHT22;12250;50.956;4.746;2023-07-16T11:34:57;28.60;63.50
24049;DHT22;12250;50.956;4.746;2023-07-16T11:37:28;28.40;65.50
24049;DHT22;12250;50.956;4.746;2023-07-16T11:40:02;28.50;65.10
24049;DHT22;12250;50.956;4.746;2023-07-16T11:42:32;28.80;64.40
24049;DHT22;12250;50.956;4.746;2023-07-16T11:44:58;28.60;63.30
24049;DHT22;12250;50.956;4.746;2023-07-16T11:47:25;28.00;64.90
24049;DHT22;12250;50.956;4.746;2023-07-16T11:49:51;27.70;65.50
24049;DHT22;12250;50.956;4.746;2023-07-16T11:52:22;27.10;66.80
24049;DHT22;12250;50.956;4.746;2023-07-16T11:54:49;26.40;69.40
24049;DHT22;12250;50.956;4.746;2023-07-16T11:57:15;26.40;71.40
24049;DHT22;12250;50.956;4.746;2023-07-16T11:59:42;26.70;71.90
24049;DHT22;12250;50.956;4.746;2023-07-16T12:02:08;27.00;70.10
24049;DHT22;12250;50.956;4.746;2023-07-16T12:04:34;27.50;69.30
24049;DHT22;12250;50.956;4.746;2023-07-16T12:07:00;27.90;65.30
24049;DHT22;12250;50.956;4.746;2023-07-16T12:09:26;28.20;64.70
24049;DHT22;12250;50.956;4.746;2023-07-16T12:11:52;28.20;64.70
24049;DHT22;12250;50.956;4.746;2023-07-16T12:14:18;27.70;65.00
24049;DHT22;12250;50.956;4.746;2023-07-16T12:16:43;26.90;66.80
24049;DHT22;12250;50.956;4.746;2023-07-16T12:19:10;26.40;68.90
24049;DHT22;12250;50.956;4.746;2023-07-16T12:21:36;25.60;71.40
24049;DHT22;12250;50.956;4.746;2023-07-16T12:24:02;25.40;72.50
24049;DHT22;12250;50.956;4.746;2023-07-16T12:26:28;25.60;73.20
24049;DHT22;12250;50.956;4.746;2023-07-16T12:28:54;26.10;73.90
24049;DHT22;12250;50.956;4.746;2023-07-16T12:31:19;26.60;72.80
24049;DHT22;12250;50.956;4.746;2023-07-16T12:33:48;26.90;74.30
24049;DHT22;12250;50.956;4.746;2023-07-16T12:36:14;27.00;70.50
24049;DHT22;12250;50.956;4.746;2023-07-16T12:38:41;27.20;69.50
24049;DHT22;12250;50.956;4.746;2023-07-16T12:41:07;27.20;67.30
24049;DHT22;12250;50.956;4.746;2023-07-16T12:43:33;27.50;68.20
24049;DHT22;12250;50.956;4.746;2023-07-16T12:46:03;27.90;67.80
24049;DHT22;12250;50.956;4.746;2023-07-16T12:48:30;28.30;68.20
24049;DHT22;12250;50.956;4.746;2023-07-16T12:50:56;28.70;63.90
24049;DHT22;12250;50.956;4.746;2023-07-16T12:53:22;28.80;62.80
24049;DHT22;12250;50.956;4.746;2023-07-16T12:55:48;28.90;62.10
24049;DHT22;12250;50.956;4.746;2023-07-16T12:58:13;28.80;65.20
24049;DHT22;12250;50.956;4.746;2023-07-16T13:00:39;28.90;66.00
24049;DHT22;12250;50.956;4.746;2023-07-16T13:03:05;28.70;63.00
24049;DHT22;12250;50.956;4.746;2023-07-16T13:05:31;28.40;63.70
24049;DHT22;12250;50.956;4.746;2023-07-16T13:07:56;28.10;64.30
24049;DHT22;12250;50.956;4.746;2023-07-16T13:10:23;27.70;65.70
24049;DHT22;12250;50.956;4.746;2023-07-16T13:12:49;27.40;66.90
24049;DHT22;12250;50.956;4.746;2023-07-16T13:15:14;27.30;65.50
24049;DHT22;12250;50.956;4.746;2023-07-16T13:17:40;27.40;65.10
24049;DHT22;12250;50.956;4.746;2023-07-16T13:20:06;27.60;65.50
24049;DHT22;12250;50.956;4.746;2023-07-16T13:22:32;27.70;63.50
24049;DHT22;12250;50.956;4.746;2023-07-16T13:24:58;27.90;64.10
24049;DHT22;12250;50.956;4.746;2023-07-16T13:27:24;28.10;64.40
24049;DHT22;12250;50.956;4.746;2023-07-16T13:29:50;28.10;64.10
24049;DHT22;12250;50.956;4.746;2023-07-16T13:32:16;28.00;64.40
24049;DHT22;12250;50.956;4.746;2023-07-16T13:34:42;27.60;64.40
24049;DHT22;12250;50.956;4.746;2023-07-16T13:37:09;27.50;64.20
24049;DHT22;12250;50.956;4.746;2023-07-16T13:39:34;27.70;67.00
24049;DHT22;12250;50.956;4.746;2023-07-16T13:42:00;28.10;65.20
24049;DHT22;12250;50.956;4.746;2023-07-16T13:44:25;28.30;64.40
24049;DHT22;12250;50.956;4.746;2023-07-16T13:46:51;28.20;65.30
24049;DHT22;12250;50.956;4.746;2023-07-16T13:49:17;28.20;63.20
24049;DHT22;12250;50.956;4.746;2023-07-16T13:51:42;28.30;63.10
24049;DHT22;12250;50.956;4.746;2023-07-16T13:54:11;28.30;63.00
24049;DHT22;12250;50.956;4.746;2023-07-16T13:56:37;28.50;63.20
24049;DHT22;12250;50.956;4.746;2023-07-16T13:59:02;28.50;61.10
24049;DHT22;12250;50.956;4.746;2023-07-16T14:01:29;28.30;62.50
24049;DHT22;12250;50.956;4.746;2023-07-16T14:03:55;28.30;64.20
24049;DHT22;12250;50.956;4.746;2023-07-16T14:06:21;28.40;64.30
24049;DHT22;12250;50.956;4.746;2023-07-16T14:08:47;28.20;63.20
24049;DHT22;12250;50.956;4.746;2023-07-16T14:11:12;27.80;62.20
24049;DHT22;12250;50.956;4.746;2023-07-16T14:13:38;27.50;62.80
24049;DHT22;12250;50.956;4.746;2023-07-16T14:16:04;27.00;64.40
24049;DHT22;12250;50.956;4.746;2023-07-16T14:18:30;26.60;65.80
24049;DHT22;12250;50.956;4.746;2023-07-16T14:20:56;26.20;68.30
24049;DHT22;12250;50.956;4.746;2023-07-16T14:23:22;25.30;73.70
24049;DHT22;12250;50.956;4.746;2023-07-16T14:25:47;24.20;76.30
24049;DHT22;12250;50.956;4.746;2023-07-16T14:28:13;23.60;80.50
24049;DHT22;12250;50.956;4.746;2023-07-16T14:30:41;23.30;81.90
24049;DHT22;12250;50.956;4.746;2023-07-16T14:33:07;23.30;81.70
24049;DHT22;12250;50.956;4.746;2023-07-16T14:35:33;23.70;80.60
24049;DHT22;12250;50.956;4.746;2023-07-16T14:37:59;24.30;78.30
24049;DHT22;12250;50.956;4.746;2023-07-16T14:40:25;24.80;75.40
24049;DHT22;12250;50.956;4.746;2023-07-16T14:42:51;25.40;75.40
24049;DHT22;12250;50.956;4.746;2023-07-16T14:45:17;25.90;74.90
24049;DHT22;12250;50.956;4.746;2023-07-16T14:47:43;26.10;71.90
24049;DHT22;12250;50.956;4.746;2023-07-16T14:50:09;26.00;69.90
24049;DHT22;12250;50.956;4.746;2023-07-16T14:52:35;26.10;69.10
24049;DHT22;12250;50.956;4.746;2023-07-16T14:55:02;26.10;70.40
24049;DHT22;12250;50.956;4.746;2023-07-16T14:57:30;26.00;70.20
24049;DHT22;12250;50.956;4.746;2023-07-16T14:59:55;25.80;71.90
24049;DHT22;12250;50.956;4.746;2023-07-16T15:02:21;26.00;69.30
24049;DHT22;12250;50.956;4.746;2023-07-16T15:04:47;26.30;69.50
24049;DHT22;12250;50.956;4.746;2023-07-16T15:07:13;26.40;67.50
24049;DHT22;12250;50.956;4.746;2023-07-16T15:09:39;26.50;68.70
24049;DHT22;12250;50.956;4.746;2023-07-16T15:12:07;26.70;69.50
24049;DHT22;12250;50.956;4.746;2023-07-16T15:14:33;26.90;68.80
24049;DHT22;12250;50.956;4.746;2023-07-16T15:16:59;27.20;69.20
24049;DHT22;12250;50.956;4.746;2023-07-16T15:19:24;27.40;68.10
24049;DHT22;12250;50.956;4.746;2023-07-16T15:21:50;27.60;66.20
24049;DHT22;12250;50.956;4.746;2023-07-16T15:24:16;27.40;66.80
24049;DHT22;12250;50.956;4.746;2023-07-16T15:26:42;27.20;67.50
24049;DHT22;12250;50.956;4.746;2023-07-16T15:29:07;26.80;69.40
24049;DHT22;12250;50.956;4.746;2023-07-16T15:31:33;26.80;69.10